createdAt,value
2019-04-27T00:04:38.914Z,7
2019-04-27T00:10:13.482Z,7.2
2019-04-27T00:15:44.270Z,7.2
2019-04-27T00:21:17.016Z,7.1
2019-04-27T00:26:49.758Z,7.2
2019-04-27T00:32:23.102Z,7
2019-04-27T00:37:55.099Z,7.1
2019-04-27T00:43:27.806Z,7.2
2019-04-27T00:49:00.526Z,7.3
2019-04-27T00:54:33.958Z,7.5
2019-04-27T01:00:05.917Z,7.5
2019-04-27T01:05:38.607Z,7.4
2019-04-27T01:11:11.312Z,7.3
2019-04-27T01:16:44.069Z,7.4
2019-04-27T01:22:16.800Z,7.4
2019-04-27T01:27:49.518Z,7.5
2019-04-27T01:33:22.224Z,7.6
2019-04-27T01:38:54.878Z,7.6
2019-04-27T01:44:29.336Z,7.3
2019-04-27T01:50:00.330Z,7.4
2019-04-27T01:55:33.076Z,7.4
2019-04-27T02:01:05.667Z,7.4
2019-04-27T02:06:38.595Z,7.4
2019-04-27T02:12:11.111Z,7.2
2019-04-27T02:17:43.766Z,7.2
2019-04-27T02:23:16.487Z,7.3
2019-04-27T02:28:49.590Z,7.2
2019-04-27T02:34:21.876Z,7.2
2019-04-27T02:39:54.596Z,6.8
2019-04-27T02:45:30.110Z,6.9
2019-04-27T02:51:00.039Z,7
2019-04-27T02:56:32.574Z,7.2
2019-04-27T03:02:05.171Z,7.2
2019-04-27T03:07:39.796Z,7.2
2019-04-27T03:13:11.190Z,7.4
2019-04-27T03:18:43.252Z,7.3
2019-04-27T03:24:15.973Z,7.3
2019-04-27T03:29:49.836Z,7.3
2019-04-27T03:35:22.909Z,7.4
2019-04-27T03:40:54.162Z,7.4
2019-04-27T03:46:26.878Z,7.4
2019-04-27T03:52:00.219Z,7.2
2019-04-27T03:57:32.316Z,7.3
2019-04-27T04:03:04.989Z,7.4
2019-04-27T04:08:39.653Z,7.5
2019-04-27T04:14:10.427Z,7.6
2019-04-27T04:19:51.770Z,7.8
2019-04-27T04:25:17.260Z,7.8
2019-04-27T04:30:50.828Z,7.7
2019-04-27T04:36:24.394Z,7.7
2019-04-27T04:41:59.640Z,7.7
2019-04-27T04:47:32.746Z,7.6
2019-04-27T04:53:04.897Z,7.6
2019-04-27T04:58:39.220Z,7.6
2019-04-27T05:04:12.005Z,7.6
2019-04-27T05:09:45.560Z,7.6
2019-04-27T05:15:20.657Z,7.6
2019-04-27T05:20:52.726Z,7.5
2019-04-27T05:26:26.262Z,7.6
2019-04-27T05:32:01.168Z,7.5
2019-04-27T05:37:33.446Z,7.5
2019-04-27T05:43:02.533Z,7.5
2019-04-27T05:48:36.070Z,7.5
2019-04-27T05:54:09.726Z,7.5
2019-04-27T05:59:43.251Z,7.6
2019-04-27T06:05:18.777Z,7.5
2019-04-27T06:10:45.966Z,7.5
2019-04-27T06:16:19.618Z,7.4
2019-04-27T06:21:53.163Z,7.3
2019-04-27T06:27:30.185Z,7.3
2019-04-27T06:33:00.318Z,7.3
2019-04-27T06:38:33.977Z,7.3
2019-04-27T06:44:09.324Z,7.4
2019-04-27T06:49:41.101Z,7.3
2019-04-27T06:55:14.683Z,7.3
2019-04-27T07:00:49.669Z,7.4
2019-04-27T07:06:21.917Z,7.5
2019-04-27T07:11:55.567Z,7.5
2019-04-27T07:17:29.252Z,7.5
2019-04-27T07:23:03.170Z,7.7
2019-04-27T07:28:36.460Z,7.7
2019-04-27T07:34:10.136Z,7.7
2019-04-27T07:39:43.774Z,7.8
2019-04-27T07:45:17.809Z,7.8
2019-04-27T07:50:51.223Z,7.9
2019-04-27T07:56:24.926Z,7.8
2019-04-27T08:01:59.084Z,7.9
2019-04-27T08:07:32.270Z,8.1
2019-04-27T08:13:05.988Z,8
2019-04-27T08:18:39.681Z,8
2019-04-27T08:24:13.266Z,8.1
2019-04-27T08:29:48.590Z,8.2
2019-04-27T08:35:21.547Z,8.3
2019-04-27T08:40:54.421Z,8.3
2019-04-27T08:46:28.599Z,8.3
2019-04-27T08:52:02.017Z,8.3
2019-04-27T08:57:35.579Z,8.5
2019-04-27T09:03:09.557Z,8.6
2019-04-27T09:08:49.495Z,9.1
2019-04-27T09:14:21.777Z,9.3
2019-04-27T09:19:55.643Z,9.2
2019-04-27T09:25:29.763Z,9.1
2019-04-27T09:31:03.684Z,9.1
2019-04-27T09:36:37.616Z,9.2
2019-04-27T09:42:11.845Z,9.4
2019-04-27T09:47:46.789Z,9.8
2019-04-27T09:53:19.984Z,9.9
2019-04-27T09:58:55.820Z,10.3
2019-04-27T10:04:28.758Z,10.8
2019-04-27T10:10:03.324Z,10.5
2019-04-27T10:15:37.856Z,11.2
2019-04-27T10:21:12.681Z,11.7
2019-04-27T10:26:47.656Z,11.4
2019-04-27T10:32:22.513Z,11.3
2019-04-27T10:37:57.422Z,11.2
2019-04-27T10:43:36.731Z,11.3
2019-04-27T10:49:11.499Z,10.8
2019-04-27T10:54:46.118Z,10.9
2019-04-27T11:00:20.762Z,10.8
2019-04-27T11:05:56.943Z,10
2019-04-27T11:11:29.771Z,10
2019-04-27T11:17:04.098Z,9.9
2019-04-27T11:22:38.339Z,10.3
2019-04-27T11:28:12.614Z,10.3
2019-04-27T11:33:46.876Z,10.7
2019-04-27T11:39:21.324Z,10.8
2019-04-27T11:44:58.189Z,11.2
2019-04-27T11:50:30.192Z,11.3
2019-04-27T11:56:04.840Z,11.5
2019-04-27T12:01:39.564Z,11.6
2019-04-27T12:07:14.426Z,12.3
2019-04-27T12:12:49.700Z,12.5
2019-04-27T12:18:24.856Z,12.2
2019-04-27T12:23:59.808Z,11.5
2019-04-27T12:29:34.693Z,11.3
2019-04-27T12:35:09.273Z,11
2019-04-27T12:40:43.734Z,10.6
2019-04-27T12:46:18.289Z,10.4
2019-04-27T12:51:52.404Z,10.3
2019-04-27T12:57:27.620Z,9.9
2019-04-27T13:03:00.623Z,10.2
2019-04-27T13:08:35.701Z,10.5
2019-04-27T13:14:09.047Z,10.7
2019-04-27T13:19:43.450Z,10.9
2019-04-27T13:25:17.866Z,11
2019-04-27T13:30:52.309Z,10.6
2019-04-27T13:36:26.716Z,10.2
2019-04-27T13:42:00.830Z,10
2019-04-27T13:47:36.613Z,9.7
2019-04-27T13:53:08.918Z,9.3
2019-04-27T13:58:42.840Z,9
2019-04-27T14:04:16.801Z,9.3
2019-04-27T14:09:46.400Z,9.6
2019-04-27T14:15:20.336Z,9.7
2019-04-27T14:20:54.392Z,9.7
2019-04-27T14:26:28.539Z,9.6
2019-04-27T14:32:02.440Z,9.6
2019-04-27T14:37:36.413Z,9.5
2019-04-27T14:43:10.355Z,9.6
2019-04-27T14:48:44.376Z,9.8
2019-04-27T14:54:18.841Z,10
2019-04-27T14:59:52.464Z,10
2019-04-27T15:05:26.504Z,10
2019-04-27T15:11:00.642Z,10
2019-04-27T15:16:37.760Z,10.1
2019-04-27T15:22:12.586Z,10.2
2019-04-27T15:27:42.954Z,10.2
2019-04-27T15:33:17.609Z,10.4
2019-04-27T15:38:53.656Z,10.4
2019-04-27T15:44:25.279Z,10.4
2019-04-27T15:49:59.433Z,10.5
2019-04-27T15:55:36.759Z,10.9
2019-04-27T16:01:11.220Z,10.9
2019-04-27T16:06:42.755Z,10.7
2019-04-27T16:12:18.113Z,10.6
2019-04-27T16:17:55.733Z,10.9
2019-04-27T16:23:24.871Z,11
2019-04-27T16:28:59.147Z,11.5
2019-04-27T16:34:37.733Z,11.6
2019-04-27T16:40:10.719Z,11.6
2019-04-27T16:45:43.170Z,11.1
2019-04-27T16:51:18.389Z,10.9
2019-04-27T16:56:58.206Z,10.7
2019-04-27T17:02:26.113Z,10.6
2019-04-27T17:08:00.244Z,10.7
2019-04-27T17:13:34.436Z,10.7
2019-04-27T17:30:19.496Z,8.4
2019-04-27T17:35:53.212Z,8.6
2019-04-27T17:41:28.265Z,9.1
2019-04-27T17:47:01.340Z,8.7
2019-04-27T17:52:37.784Z,8.4
2019-04-27T17:58:09.873Z,8.8
2019-04-27T18:03:43.910Z,8.8
2019-04-27T18:09:22.004Z,8.5
2019-04-27T18:14:55.690Z,8.4
2019-04-27T18:20:29.489Z,8.3
2019-04-27T18:26:03.109Z,8.3
2019-04-27T18:31:38.300Z,8.4
2019-04-27T18:37:10.494Z,8.4
2019-04-27T18:42:44.105Z,8.5
2019-04-27T18:48:18.681Z,8.7
2019-04-27T18:53:54.070Z,8.8
2019-04-27T18:59:24.916Z,8.5
2019-04-27T19:04:59.510Z,8.7
2019-04-27T19:10:32.302Z,8.6
2019-04-27T19:16:05.846Z,8.7
2019-04-27T19:21:39.438Z,8.7
2019-04-27T19:27:17.723Z,8.7
2019-04-27T19:32:46.733Z,8.6
2019-04-27T19:38:20.323Z,8.5
2019-04-27T19:43:54.021Z,8.4
2019-04-27T19:49:29.349Z,8.3
2019-04-27T19:55:01.143Z,8.3
2019-04-27T20:00:34.579Z,7.9
2019-04-27T20:06:08.129Z,7.8
2019-04-27T20:11:41.633Z,7.6
2019-04-27T20:17:15.000Z,7.6
2019-04-27T20:22:48.416Z,7.6
2019-04-27T20:28:23.056Z,7.6
2019-04-27T20:33:55.494Z,7.5
2019-04-27T20:39:29.231Z,4.1
2019-04-27T20:45:02.690Z,4
2019-04-27T20:50:35.846Z,3.8
2019-04-27T20:56:09.000Z,3.7
2019-04-27T21:01:41.812Z,4.3
2019-04-27T21:07:14.710Z,4.3
2019-04-27T21:12:47.590Z,4.4
2019-04-27T21:18:21.679Z,5
2019-04-27T21:46:09.479Z,6.6
2019-04-27T21:51:42.701Z,6.9
2019-04-27T21:57:15.873Z,5.9
2019-04-27T22:02:51.030Z,5.7
2019-04-27T22:08:22.088Z,5.8
2019-04-27T22:13:55.304Z,5.8
2019-04-27T22:19:28.478Z,5.8
2019-04-27T22:25:01.704Z,5.8
2019-04-27T22:30:34.804Z,5.9
2019-04-27T22:36:10.799Z,5.8
2019-04-27T22:41:41.730Z,5.9
2019-04-27T22:47:14.437Z,6
2019-04-27T22:52:47.385Z,5.9
2019-04-27T22:58:21.761Z,5.7
2019-04-27T23:03:53.777Z,5.7
2019-04-27T23:09:26.854Z,5.6
2019-04-27T23:14:59.858Z,5.6
2019-04-27T23:20:33.110Z,5.6
2019-04-27T23:26:06.279Z,5.1
2019-04-27T23:31:40.773Z,5.4
2019-04-27T23:37:12.704Z,5.7
2019-04-27T23:42:46.037Z,6.1
2019-04-27T23:48:19.166Z,6.5
2019-04-27T23:53:52.388Z,5.2
2019-04-27T23:59:25.540Z,5.5
